sensor_id;sensor_type;location;lat;lon;timestamp;pressure;altitude;pressure_sealevel;temperature;humidity
66703;BME280;60933;46.398;-63.798;2023-06-04T00:00:03;102130.44;;;4.35;97.66
66703;BME280;60933;46.398;-63.798;2023-06-04T00:02:29;102132.09;;;4.34;97.87
66703;BME280;60933;46.398;-63.798;2023-06-04T00:04:56;102124.41;;;4.33;97.86
66703;BME280;60933;46.398;-63.798;2023-06-04T00:07:22;102133.03;;;4.38;97.71
66703;BME280;60933;46.398;-63.798;2023-06-04T00:09:48;102139.84;;;4.37;97.78
66703;BME280;60933;46.398;-63.798;2023-06-04T00:12:14;102141.47;;;4.34;98.08
66703;BME280;60933;46.398;-63.798;2023-06-04T00:14:41;102135.53;;;4.35;97.81
66703;BME280;60933;46.398;-63.798;2023-06-04T00:17:08;102138.91;;;4.32;97.99
66703;BME280;60933;46.398;-63.798;2023-06-04T00:19:35;102136.41;;;4.35;98.01
66703;BME280;60933;46.398;-63.798;2023-06-04T00:22:01;102134.63;;;4.33;98.08
66703;BME280;60933;46.398;-63.798;2023-06-04T00:24:27;102143.94;;;4.31;97.81
66703;BME280;60933;46.398;-63.798;2023-06-04T00:26:53;102156.03;;;4.36;97.94
66703;BME280;60933;46.398;-63.798;2023-06-04T00:29:19;102151.75;;;4.37;98.07
66703;BME280;60933;46.398;-63.798;2023-06-04T00:31:45;102145.69;;;4.32;97.89
66703;BME280;60933;46.398;-63.798;2023-06-04T00:34:12;102156.03;;;4.36;98.00
66703;BME280;60933;46.398;-63.798;2023-06-04T00:36:39;102148.38;;;4.38;98.14
66703;BME280;60933;46.398;-63.798;2023-06-04T00:39:06;102135.66;;;4.39;98.24
66703;BME280;60933;46.398;-63.798;2023-06-04T00:41:32;102127.09;;;4.39;98.26
66703;BME280;60933;46.398;-63.798;2023-06-04T00:43:58;102128.00;;;4.39;97.84
66703;BME280;60933;46.398;-63.798;2023-06-04T00:46:28;102125.44;;;4.39;98.32
66703;BME280;60933;46.398;-63.798;2023-06-04T00:48:55;102134.78;;;4.39;98.22
66703;BME280;60933;46.398;-63.798;2023-06-04T00:51:22;102151.84;;;4.40;98.16
66703;BME280;60933;46.398;-63.798;2023-06-04T00:53:49;102138.22;;;4.39;98.37
66703;BME280;60933;46.398;-63.798;2023-06-04T00:56:16;102138.25;;;4.41;98.18
66703;BME280;60933;46.398;-63.798;2023-06-04T00:58:44;102147.63;;;4.40;98.38
66703;BME280;60933;46.398;-63.798;2023-06-04T01:04:27;102149.31;;;4.41;98.66
66703;BME280;60933;46.398;-63.798;2023-06-04T01:06:56;102147.63;;;4.42;98.65
66703;BME280;60933;46.398;-63.798;2023-06-04T01:09:28;102146.84;;;4.44;98.56
66703;BME280;60933;46.398;-63.798;2023-06-04T01:11:55;102147.66;;;4.43;98.83
66703;BME280;60933;46.398;-63.798;2023-06-04T01:14:24;102145.13;;;4.45;98.61
66703;BME280;60933;46.398;-63.798;2023-06-04T01:16:56;102126.38;;;4.43;98.45
66703;BME280;60933;46.398;-63.798;2023-06-04T01:19:57;102129.78;;;4.45;98.64
66703;BME280;60933;46.398;-63.798;2023-06-04T01:25:38;102135.84;;;4.49;98.78
66703;BME280;60933;46.398;-63.798;2023-06-04T01:28:15;102131.63;;;4.49;98.99
66703;BME280;60933;46.398;-63.798;2023-06-04T01:30:46;102136.72;;;4.49;98.63
66703;BME280;60933;46.398;-63.798;2023-06-04T01:33:17;102145.25;;;4.50;98.85
66703;BME280;60933;46.398;-63.798;2023-06-04T01:35:44;102147.88;;;4.51;99.20
66703;BME280;60933;46.398;-63.798;2023-06-04T01:38:10;102127.34;;;4.50;99.01
66703;BME280;60933;46.398;-63.798;2023-06-04T01:40:36;102141.16;;;4.56;98.95
66703;BME280;60933;46.398;-63.798;2023-06-04T01:43:03;102132.53;;;4.53;99.20
66703;BME280;60933;46.398;-63.798;2023-06-04T01:45:30;102144.56;;;4.57;99.28
66703;BME280;60933;46.398;-63.798;2023-06-04T01:47:56;102139.44;;;4.57;99.21
66703;BME280;60933;46.398;-63.798;2023-06-04T01:50:23;102129.22;;;4.57;99.35
66703;BME280;60933;46.398;-63.798;2023-06-04T01:52:49;102113.91;;;4.58;99.24
66703;BME280;60933;46.398;-63.798;2023-06-04T01:55:16;102101.13;;;4.58;99.07
66703;BME280;60933;46.398;-63.798;2023-06-04T01:57:43;102107.97;;;4.59;99.33
66703;BME280;60933;46.398;-63.798;2023-06-04T02:00:11;102108.75;;;4.57;99.17
66703;BME280;60933;46.398;-63.798;2023-06-04T02:02:38;102127.66;;;4.64;99.41
66703;BME280;60933;46.398;-63.798;2023-06-04T02:05:06;102120.81;;;4.63;99.18
66703;BME280;60933;46.398;-63.798;2023-06-04T02:07:40;102134.53;;;4.66;99.41
66703;BME280;60933;46.398;-63.798;2023-06-04T02:10:08;102115.81;;;4.67;99.55
66703;BME280;60933;46.398;-63.798;2023-06-04T02:12:39;102110.78;;;4.70;99.66
66703;BME280;60933;46.398;-63.798;2023-06-04T02:15:06;102109.88;;;4.70;99.26
66703;BME280;60933;46.398;-63.798;2023-06-04T02:17:33;102109.91;;;4.71;99.49
66703;BME280;60933;46.398;-63.798;2023-06-04T02:20:03;102122.75;;;4.73;99.62
66703;BME280;60933;46.398;-63.798;2023-06-04T02:22:30;102133.03;;;4.76;99.48
66703;BME280;60933;46.398;-63.798;2023-06-04T02:24:56;102122.81;;;4.76;99.55
66703;BME280;60933;46.398;-63.798;2023-06-04T02:27:22;102132.19;;;4.75;99.75
66703;BME280;60933;46.398;-63.798;2023-06-04T02:29:48;102127.06;;;4.75;99.74
66703;BME280;60933;46.398;-63.798;2023-06-04T02:32:15;102135.66;;;4.79;99.92
66703;BME280;60933;46.398;-63.798;2023-06-04T02:34:41;102130.56;;;4.79;99.93
66703;BME280;60933;46.398;-63.798;2023-06-04T02:37:07;102114.41;;;4.82;99.80
66703;BME280;60933;46.398;-63.798;2023-06-04T02:39:33;102130.63;;;4.82;99.95
66703;BME280;60933;46.398;-63.798;2023-06-04T02:41:59;102134.91;;;4.83;99.82
66703;BME280;60933;46.398;-63.798;2023-06-04T02:44:25;102128.94;;;4.83;99.66
66703;BME280;60933;46.398;-63.798;2023-06-04T02:46:51;102126.34;;;4.81;99.84
66703;BME280;60933;46.398;-63.798;2023-06-04T02:49:18;102130.69;;;4.85;99.74
66703;BME280;60933;46.398;-63.798;2023-06-04T02:51:44;102129.88;;;4.88;99.87
66703;BME280;60933;46.398;-63.798;2023-06-04T02:54:10;102139.28;;;4.89;100.00
66703;BME280;60933;46.398;-63.798;2023-06-04T02:56:36;102139.31;;;4.90;99.86
66703;BME280;60933;46.398;-63.798;2023-06-04T02:59:03;102125.56;;;4.85;99.82
66703;BME280;60933;46.398;-63.798;2023-06-04T03:01:30;102127.31;;;4.88;99.69
66703;BME280;60933;46.398;-63.798;2023-06-04T03:03:57;102137.66;;;4.93;100.00
66703;BME280;60933;46.398;-63.798;2023-06-04T03:06:23;102127.41;;;4.93;100.00
66703;BME280;60933;46.398;-63.798;2023-06-04T03:08:50;102131.72;;;4.95;99.98
66703;BME280;60933;46.398;-63.798;2023-06-04T03:11:18;102119.78;;;4.94;100.00
66703;BME280;60933;46.398;-63.798;2023-06-04T03:13:48;102127.50;;;4.97;100.00
66703;BME280;60933;46.398;-63.798;2023-06-04T03:16:15;102129.22;;;4.97;100.00
66703;BME280;60933;46.398;-63.798;2023-06-04T03:18:41;102118.16;;;4.98;100.00
66703;BME280;60933;46.398;-63.798;2023-06-04T03:21:08;102105.38;;;4.98;100.00
66703;BME280;60933;46.398;-63.798;2023-06-04T03:23:35;102103.69;;;5.00;100.00
66703;BME280;60933;46.398;-63.798;2023-06-04T03:26:02;102107.13;;;5.00;100.00
66703;BME280;60933;46.398;-63.798;2023-06-04T03:28:28;102109.69;;;5.02;100.00
66703;BME280;60933;46.398;-63.798;2023-06-04T03:30:54;102113.06;;;4.99;100.00
66703;BME280;60933;46.398;-63.798;2023-06-04T03:33:21;102096.06;;;5.01;100.00
66703;BME280;60933;46.398;-63.798;2023-06-04T03:35:47;102105.47;;;5.04;100.00
66703;BME280;60933;46.398;-63.798;2023-06-04T03:38:14;102110.66;;;5.07;100.00
66703;BME280;60933;46.398;-63.798;2023-06-04T03:40:43;102103.78;;;5.06;100.00
66703;BME280;60933;46.398;-63.798;2023-06-04T03:43:10;102105.53;;;5.07;100.00
66703;BME280;60933;46.398;-63.798;2023-06-04T03:45:36;102107.25;;;5.08;100.00
66703;BME280;60933;46.398;-63.798;2023-06-04T03:48:02;102102.13;;;5.08;100.00
66703;BME280;60933;46.398;-63.798;2023-06-04T03:50:28;102101.31;;;5.09;100.00
66703;BME280;60933;46.398;-63.798;2023-06-04T03:52:54;102091.97;;;5.11;100.00
66703;BME280;60933;46.398;-63.798;2023-06-04T03:55:20;102090.25;;;5.10;100.00
66703;BME280;60933;46.398;-63.798;2023-06-04T03:57:46;102092.81;;;5.12;100.00
66703;BME280;60933;46.398;-63.798;2023-06-04T04:00:14;102090.25;;;5.12;100.00
66703;BME280;60933;46.398;-63.798;2023-06-04T04:02:41;102092.88;;;5.13;100.00
66703;BME280;60933;46.398;-63.798;2023-06-04T04:05:07;102085.16;;;5.12;100.00
66703;BME280;60933;46.398;-63.798;2023-06-04T04:07:35;102089.50;;;5.16;100.00
66703;BME280;60933;46.398;-63.798;2023-06-04T04:10:01;102073.25;;;5.15;100.00
66703;BME280;60933;46.398;-63.798;2023-06-04T04:12:28;102073.31;;;5.17;100.00
66703;BME280;60933;46.398;-63.798;2023-06-04T04:14:54;102073.34;;;5.18;100.00
66703;BME280;60933;46.398;-63.798;2023-06-04T04:17:20;102069.03;;;5.16;100.00
66703;BME280;60933;46.398;-63.798;2023-06-04T04:19:46;102070.78;;;5.18;100.00
66703;BME280;60933;46.398;-63.798;2023-06-04T04:22:13;102072.50;;;5.19;100.00
66703;BME280;60933;46.398;-63.798;2023-06-04T04:24:43;102063.94;;;5.17;100.00
66703;BME280;60933;46.398;-63.798;2023-06-04T04:27:09;102076.78;;;5.20;100.00
66703;BME280;60933;46.398;-63.798;2023-06-04T04:29:39;102070.00;;;5.22;100.00
66703;BME280;60933;46.398;-63.798;2023-06-04T04:32:08;102073.44;;;5.25;100.00
66703;BME280;60933;46.398;-63.798;2023-06-04T04:34:38;102070.88;;;5.25;100.00
66703;BME280;60933;46.398;-63.798;2023-06-04T04:37:05;102065.75;;;5.25;100.00
66703;BME280;60933;46.398;-63.798;2023-06-04T04:39:35;102067.50;;;5.26;100.00
66703;BME280;60933;46.398;-63.798;2023-06-04T04:42:02;102073.50;;;5.28;100.00
66703;BME280;60933;46.398;-63.798;2023-06-04T04:44:28;102076.94;;;5.28;100.00
66703;BME280;60933;46.398;-63.798;2023-06-04T04:46:54;102082.06;;;5.30;100.00
66703;BME280;60933;46.398;-63.798;2023-06-04T04:49:20;102083.78;;;5.31;100.00
66703;BME280;60933;46.398;-63.798;2023-06-04T04:51:47;102069.34;;;5.33;100.00
66703;BME280;60933;46.398;-63.798;2023-06-04T04:54:13;102074.44;;;5.33;100.00
66703;BME280;60933;46.398;-63.798;2023-06-04T04:56:39;102069.34;;;5.33;100.00
66703;BME280;60933;46.398;-63.798;2023-06-04T04:59:05;102059.88;;;5.29;100.00
66703;BME280;60933;46.398;-63.798;2023-06-04T05:01:31;102067.69;;;5.36;100.00
66703;BME280;60933;46.398;-63.798;2023-06-04T05:03:57;102063.41;;;5.35;100.00
66703;BME280;60933;46.398;-63.798;2023-06-04T05:06:23;102054.88;;;5.35;100.00
66703;BME280;60933;46.398;-63.798;2023-06-04T05:08:50;102061.72;;;5.36;100.00
66703;BME280;60933;46.398;-63.798;2023-06-04T05:11:16;102060.91;;;5.38;100.00
66703;BME280;60933;46.398;-63.798;2023-06-04T05:13:42;102062.59;;;5.38;100.00
66703;BME280;60933;46.398;-63.798;2023-06-04T05:16:08;102059.19;;;5.39;100.00
66703;BME280;60933;46.398;-63.798;2023-06-04T05:18:40;102066.03;;;5.40;100.00
66703;BME280;60933;46.398;-63.798;2023-06-04T05:21:07;102060.94;;;5.40;100.00
66703;BME280;60933;46.398;-63.798;2023-06-04T05:23:33;102064.38;;;5.42;100.00
66703;BME280;60933;46.398;-63.798;2023-06-04T05:26:00;102054.97;;;5.41;100.00
66703;BME280;60933;46.398;-63.798;2023-06-04T05:28:27;102059.25;;;5.42;100.00
66703;BME280;60933;46.398;-63.798;2023-06-04T05:30:53;102057.53;;;5.41;100.00
66703;BME280;60933;46.398;-63.798;2023-06-04T05:33:26;102050.69;;;5.42;100.00
66703;BME280;60933;46.398;-63.798;2023-06-04T05:35:52;102030.22;;;5.42;100.00
66703;BME280;60933;46.398;-63.798;2023-06-04T05:38:20;102043.06;;;5.43;100.00
66703;BME280;60933;46.398;-63.798;2023-06-04T05:40:46;102042.19;;;5.44;100.00
66703;BME280;60933;46.398;-63.798;2023-06-04T05:43:13;102024.22;;;5.39;100.00
66703;BME280;60933;46.398;-63.798;2023-06-04T05:45:39;102031.94;;;5.43;100.00
66703;BME280;60933;46.398;-63.798;2023-06-04T05:48:05;102031.91;;;5.41;100.00
66703;BME280;60933;46.398;-63.798;2023-06-04T05:50:31;102024.25;;;5.43;100.00
66703;BME280;60933;46.398;-63.798;2023-06-04T05:52:58;102017.47;;;5.43;100.00
66703;BME280;60933;46.398;-63.798;2023-06-04T05:55:24;102012.34;;;5.45;100.00
66703;BME280;60933;46.398;-63.798;2023-06-04T05:57:50;102003.78;;;5.44;100.00
66703;BME280;60933;46.398;-63.798;2023-06-04T06:00:19;102014.03;;;5.44;100.00
66703;BME280;60933;46.398;-63.798;2023-06-04T06:02:45;102002.94;;;5.44;100.00
66703;BME280;60933;46.398;-63.798;2023-06-04T06:05:15;102012.34;;;5.45;100.00
66703;BME280;60933;46.398;-63.798;2023-06-04T06:07:41;102001.22;;;5.44;100.00
66703;BME280;60933;46.398;-63.798;2023-06-04T06:10:08;102004.66;;;5.43;100.00
66703;BME280;60933;46.398;-63.798;2023-06-04T06:12:34;102007.22;;;5.43;100.00
66703;BME280;60933;46.398;-63.798;2023-06-04T06:15:00;101996.09;;;5.44;100.00
66703;BME280;60933;46.398;-63.798;2023-06-04T06:17:26;102014.00;;;5.43;100.00
66703;BME280;60933;46.398;-63.798;2023-06-04T06:19:53;102023.44;;;5.45;100.00
66703;BME280;60933;46.398;-63.798;2023-06-04T06:22:19;102034.53;;;5.44;100.00
66703;BME280;60933;46.398;-63.798;2023-06-04T06:24:45;102037.88;;;5.40;100.00
66703;BME280;60933;46.398;-63.798;2023-06-04T06:27:14;102039.63;;;5.44;100.00
66703;BME280;60933;46.398;-63.798;2023-06-04T06:29:43;102045.72;;;5.48;100.00
66703;BME280;60933;46.398;-63.798;2023-06-04T06:32:10;102039.72;;;5.47;100.00
66703;BME280;60933;46.398;-63.798;2023-06-04T06:34:36;102037.22;;;5.50;100.00
66703;BME280;60933;46.398;-63.798;2023-06-04T06:37:06;102030.34;;;5.48;100.00
66703;BME280;60933;46.398;-63.798;2023-06-04T06:39:32;102028.66;;;5.50;100.00
66703;BME280;60933;46.398;-63.798;2023-06-04T06:41:58;102026.09;;;5.50;100.00
66703;BME280;60933;46.398;-63.798;2023-06-04T06:44:25;102027.78;;;5.49;100.00
66703;BME280;60933;46.398;-63.798;2023-06-04T06:46:51;102023.56;;;5.51;100.00
66703;BME280;60933;46.398;-63.798;2023-06-04T06:49:18;102032.94;;;5.51;100.00
66703;BME280;60933;46.398;-63.798;2023-06-04T06:51:44;102029.56;;;5.53;100.00
66703;BME280;60933;46.398;-63.798;2023-06-04T06:54:10;102027.84;;;5.52;100.00
66703;BME280;60933;46.398;-63.798;2023-06-04T06:56:36;102036.41;;;5.54;100.00
66703;BME280;60933;46.398;-63.798;2023-06-04T06:59:02;102047.56;;;5.57;100.00
66703;BME280;60933;46.398;-63.798;2023-06-04T07:01:28;102045.81;;;5.55;100.00
66703;BME280;60933;46.398;-63.798;2023-06-04T07:03:54;102049.22;;;5.56;100.00
66703;BME280;60933;46.398;-63.798;2023-06-04T07:06:20;102047.56;;;5.57;100.00
66703;BME280;60933;46.398;-63.798;2023-06-04T07:08:46;102052.69;;;5.57;100.00
66703;BME280;60933;46.398;-63.798;2023-06-04T07:11:14;102050.13;;;5.57;100.00
66703;BME280;60933;46.398;-63.798;2023-06-04T07:13:42;102050.16;;;5.60;100.00
66703;BME280;60933;46.398;-63.798;2023-06-04T07:16:08;102050.13;;;5.58;100.00
66703;BME280;60933;46.398;-63.798;2023-06-04T07:18:34;102048.44;;;5.59;100.00
66703;BME280;60933;46.398;-63.798;2023-06-04T07:21:00;102050.16;;;5.60;100.00
66703;BME280;60933;46.398;-63.798;2023-06-04T07:23:26;102059.56;;;5.61;100.00
66703;BME280;60933;46.398;-63.798;2023-06-04T07:25:53;102051.78;;;5.54;100.00
66703;BME280;60933;46.398;-63.798;2023-06-04T07:28:19;102054.41;;;5.58;100.00
66703;BME280;60933;46.398;-63.798;2023-06-04T07:30:45;102044.19;;;5.59;100.00
66703;BME280;60933;46.398;-63.798;2023-06-04T07:33:11;102032.03;;;5.49;100.00
66703;BME280;60933;46.398;-63.798;2023-06-04T07:35:37;102055.28;;;5.60;100.00
66703;BME280;60933;46.398;-63.798;2023-06-04T07:38:04;102056.97;;;5.58;100.00
66703;BME280;60933;46.398;-63.798;2023-06-04T07:40:30;102052.66;;;5.55;100.00
66703;BME280;60933;46.398;-63.798;2023-06-04T07:42:56;102053.56;;;5.59;100.00
66703;BME280;60933;46.398;-63.798;2023-06-04T07:45:22;102046.72;;;5.58;100.00
66703;BME280;60933;46.398;-63.798;2023-06-04T07:47:48;102057.81;;;5.58;100.00
66703;BME280;60933;46.398;-63.798;2023-06-04T07:50:14;102050.97;;;5.57;100.00
66703;BME280;60933;46.398;-63.798;2023-06-04T07:52:40;102057.00;;;5.61;100.00
66703;BME280;60933;46.398;-63.798;2023-06-04T07:55:07;102057.06;;;5.62;100.00
66703;BME280;60933;46.398;-63.798;2023-06-04T07:57:34;102057.88;;;5.61;100.00
66703;BME280;60933;46.398;-63.798;2023-06-04T08:00:02;102066.38;;;5.59;100.00
66703;BME280;60933;46.398;-63.798;2023-06-04T08:02:31;102072.38;;;5.61;100.00
66703;BME280;60933;46.398;-63.798;2023-06-04T08:04:57;102080.94;;;5.61;100.00
66703;BME280;60933;46.398;-63.798;2023-06-04T08:07:23;102086.94;;;5.63;100.00
66703;BME280;60933;46.398;-63.798;2023-06-04T08:09:49;102092.13;;;5.66;100.00
66703;BME280;60933;46.398;-63.798;2023-06-04T08:12:16;102088.72;;;5.66;100.00
66703;BME280;60933;46.398;-63.798;2023-06-04T08:14:42;102094.69;;;5.66;100.00
66703;BME280;60933;46.398;-63.798;2023-06-04T08:17:08;102093.00;;;5.67;100.00
66703;BME280;60933;46.398;-63.798;2023-06-04T08:19:34;102081.03;;;5.66;100.00
66703;BME280;60933;46.398;-63.798;2023-06-04T08:22:00;102082.69;;;5.65;100.00
66703;BME280;60933;46.398;-63.798;2023-06-04T08:24:26;102069.88;;;5.64;100.00
66703;BME280;60933;46.398;-63.798;2023-06-04T08:26:52;102075.91;;;5.66;100.00
66703;BME280;60933;46.398;-63.798;2023-06-04T08:29:19;102065.59;;;5.64;100.00
66703;BME280;60933;46.398;-63.798;2023-06-04T08:31:45;102059.63;;;5.64;100.00
66703;BME280;60933;46.398;-63.798;2023-06-04T08:34:11;102060.41;;;5.60;100.00
66703;BME280;60933;46.398;-63.798;2023-06-04T08:36:37;102054.50;;;5.64;100.00
66703;BME280;60933;46.398;-63.798;2023-06-04T08:39:03;102055.34;;;5.63;100.00
66703;BME280;60933;46.398;-63.798;2023-06-04T08:41:34;102051.03;;;5.60;100.00
66703;BME280;60933;46.398;-63.798;2023-06-04T08:44:05;102069.03;;;5.65;100.00
66703;BME280;60933;46.398;-63.798;2023-06-04T08:46:32;102071.63;;;5.66;100.00
66703;BME280;60933;46.398;-63.798;2023-06-04T08:49:01;102054.56;;;5.67;100.00
66703;BME280;60933;46.398;-63.798;2023-06-04T08:51:30;102058.81;;;5.68;100.00
66703;BME280;60933;46.398;-63.798;2023-06-04T08:53:59;102056.22;;;5.65;100.00
66703;BME280;60933;46.398;-63.798;2023-06-04T08:56:25;102055.44;;;5.69;100.00
66703;BME280;60933;46.398;-63.798;2023-06-04T08:59:00;102058.88;;;5.69;100.00
66703;BME280;60933;46.398;-63.798;2023-06-04T09:01:27;102071.69;;;5.69;100.00
66703;BME280;60933;46.398;-63.798;2023-06-04T09:03:54;102089.66;;;5.73;100.00
66703;BME280;60933;46.398;-63.798;2023-06-04T09:06:24;102080.22;;;5.70;100.00
66703;BME280;60933;46.398;-63.798;2023-06-04T09:08:51;102076.00;;;5.72;100.00
66703;BME280;60933;46.398;-63.798;2023-06-04T09:11:19;102073.47;;;5.75;100.00
66703;BME280;60933;46.398;-63.798;2023-06-04T09:13:47;102069.19;;;5.74;100.00
66703;BME280;60933;46.398;-63.798;2023-06-04T09:16:14;102067.44;;;5.71;100.00
66703;BME280;60933;46.398;-63.798;2023-06-04T09:18:40;102064.94;;;5.75;100.00
66703;BME280;60933;46.398;-63.798;2023-06-04T09:21:07;102072.69;;;5.78;100.00
66703;BME280;60933;46.398;-63.798;2023-06-04T09:26:10;102049.50;;;5.71;100.00
66703;BME280;60933;46.398;-63.798;2023-06-04T09:28:40;102062.44;;;5.79;100.00
66703;BME280;60933;46.398;-63.798;2023-06-04T09:31:08;102055.66;;;5.81;100.00
66703;BME280;60933;46.398;-63.798;2023-06-04T09:33:50;102058.22;;;5.83;100.00
66703;BME280;60933;46.398;-63.798;2023-06-04T09:36:17;102054.84;;;5.84;100.00
66703;BME280;60933;46.398;-63.798;2023-06-04T09:38:43;102055.69;;;5.84;100.00
66703;BME280;60933;46.398;-63.798;2023-06-04T09:41:16;102048.81;;;5.83;100.00
66703;BME280;60933;46.398;-63.798;2023-06-04T09:43:42;102057.41;;;5.84;100.00
66703;BME280;60933;46.398;-63.798;2023-06-04T09:46:16;102054.03;;;5.88;100.00
66703;BME280;60933;46.398;-63.798;2023-06-04T09:48:44;102049.78;;;5.89;100.00
66703;BME280;60933;46.398;-63.798;2023-06-04T09:51:12;102043.81;;;5.90;100.00
66703;BME280;60933;46.398;-63.798;2023-06-04T09:53:41;102033.59;;;5.93;100.00
66703;BME280;60933;46.398;-63.798;2023-06-04T09:56:08;102027.63;;;5.94;100.00
66703;BME280;60933;46.398;-63.798;2023-06-04T09:58:38;102031.91;;;5.93;100.00
66703;BME280;60933;46.398;-63.798;2023-06-04T10:01:05;102039.72;;;5.99;100.00
66703;BME280;60933;46.398;-63.798;2023-06-04T10:03:33;102035.50;;;6.03;100.00
66703;BME280;60933;46.398;-63.798;2023-06-04T10:06:03;102032.88;;;6.00;100.00
66703;BME280;60933;46.398;-63.798;2023-06-04T10:08:31;102038.16;;;6.09;100.00
66703;BME280;60933;46.398;-63.798;2023-06-04T10:11:00;102035.66;;;6.12;100.00
66703;BME280;60933;46.398;-63.798;2023-06-04T10:13:53;102040.72;;;6.11;100.00
66703;BME280;60933;46.398;-63.798;2023-06-04T10:16:25;102043.34;;;6.14;100.00
66703;BME280;60933;46.398;-63.798;2023-06-04T10:18:52;102039.97;;;6.16;100.00
66703;BME280;60933;46.398;-63.798;2023-06-04T10:21:20;102039.03;;;6.11;100.00
66703;BME280;60933;46.398;-63.798;2023-06-04T10:23:47;102034.75;;;6.09;100.00
66703;BME280;60933;46.398;-63.798;2023-06-04T10:26:15;102032.13;;;6.07;100.00
66703;BME280;60933;46.398;-63.798;2023-06-04T10:28:42;102039.88;;;6.09;100.00
66703;BME280;60933;46.398;-63.798;2023-06-04T10:31:11;102032.13;;;6.06;100.00
66703;BME280;60933;46.398;-63.798;2023-06-04T10:33:39;102037.31;;;6.10;100.00
66703;BME280;60933;46.398;-63.798;2023-06-04T10:36:19;102027.06;;;6.09;100.00
66703;BME280;60933;46.398;-63.798;2023-06-04T10:38:50;102035.53;;;6.06;100.00
66703;BME280;60933;46.398;-63.798;2023-06-04T10:41:18;102027.00;;;6.07;100.00
66703;BME280;60933;46.398;-63.798;2023-06-04T10:43:59;102027.06;;;6.09;100.00
66703;BME280;60933;46.398;-63.798;2023-06-04T10:46:26;102027.91;;;6.11;100.00
66703;BME280;60933;46.398;-63.798;2023-06-04T10:49:03;102033.91;;;6.11;100.00
66703;BME280;60933;46.398;-63.798;2023-06-04T10:51:33;102037.34;;;6.13;99.68
66703;BME280;60933;46.398;-63.798;2023-06-04T10:54:00;102039.97;;;6.18;99.77
66703;BME280;60933;46.398;-63.798;2023-06-04T10:56:31;102037.38;;;6.15;99.66
66703;BME280;60933;46.398;-63.798;2023-06-04T10:58:59;102041.63;;;6.13;99.42
66703;BME280;60933;46.398;-63.798;2023-06-04T11:01:25;102042.53;;;6.16;99.29
66703;BME280;60933;46.398;-63.798;2023-06-04T11:03:52;102035.72;;;6.18;99.15
66703;BME280;60933;46.398;-63.798;2023-06-04T11:06:18;102040.03;;;6.23;98.88
66703;BME280;60933;46.398;-63.798;2023-06-04T11:08:44;102041.78;;;6.24;99.05
66703;BME280;60933;46.398;-63.798;2023-06-04T11:11:12;102040.94;;;6.25;98.87
66703;BME280;60933;46.398;-63.798;2023-06-04T11:13:43;102041.91;;;6.31;98.83
66703;BME280;60933;46.398;-63.798;2023-06-04T11:16:16;102035.94;;;6.34;98.67
66703;BME280;60933;46.398;-63.798;2023-06-04T11:18:43;102043.59;;;6.32;98.39
66703;BME280;60933;46.398;-63.798;2023-06-04T11:21:09;102039.34;;;6.33;98.30
66703;BME280;60933;46.398;-63.798;2023-06-04T11:23:40;102022.28;;;6.35;98.24
66703;BME280;60933;46.398;-63.798;2023-06-04T11:26:07;102022.38;;;6.44;98.22
66703;BME280;60933;46.398;-63.798;2023-06-04T11:28:33;102013.81;;;6.42;97.87
66703;BME280;60933;46.398;-63.798;2023-06-04T11:31:01;102013.81;;;6.42;97.74
66703;BME280;60933;46.398;-63.798;2023-06-04T11:33:47;102016.44;;;6.47;97.39
66703;BME280;60933;46.398;-63.798;2023-06-04T11:36:42;102007.03;;;6.47;97.05
66703;BME280;60933;46.398;-63.798;2023-06-04T11:39:08;101998.50;;;6.48;96.86
66703;BME280;60933;46.398;-63.798;2023-06-04T11:41:36;102011.44;;;6.58;96.49
66703;BME280;60933;46.398;-63.798;2023-06-04T11:44:04;102009.88;;;6.71;97.01
66703;BME280;60933;46.398;-63.798;2023-06-04T11:46:39;102002.28;;;6.78;96.38
66703;BME280;60933;46.398;-63.798;2023-06-04T11:49:06;102006.66;;;6.89;96.24
66703;BME280;60933;46.398;-63.798;2023-06-04T11:51:33;102005.94;;;7.01;96.00
66703;BME280;60933;46.398;-63.798;2023-06-04T11:53:59;102000.09;;;7.17;95.51
66703;BME280;60933;46.398;-63.798;2023-06-04T11:56:25;101997.66;;;7.33;95.22
66703;BME280;60933;46.398;-63.798;2023-06-04T11:58:54;102001.19;;;7.42;94.86
66703;BME280;60933;46.398;-63.798;2023-06-04T12:01:20;102006.38;;;7.50;94.48
66703;BME280;60933;46.398;-63.798;2023-06-04T12:03:46;102020.91;;;7.48;93.74
66703;BME280;60933;46.398;-63.798;2023-06-04T12:06:17;102033.78;;;7.50;92.67
66703;BME280;60933;46.398;-63.798;2023-06-04T12:08:53;102038.09;;;7.55;92.68
66703;BME280;60933;46.398;-63.798;2023-06-04T12:14:02;102035.56;;;7.57;91.95
66703;BME280;60933;46.398;-63.798;2023-06-04T12:16:29;102040.66;;;7.51;91.29
66703;BME280;60933;46.398;-63.798;2023-06-04T12:19:08;102043.22;;;7.52;91.03
66703;BME280;60933;46.398;-63.798;2023-06-04T12:21:36;102054.38;;;7.53;90.79
66703;BME280;60933;46.398;-63.798;2023-06-04T12:26:34;102053.66;;;7.68;90.80
66703;BME280;60933;46.398;-63.798;2023-06-04T12:29:17;102051.16;;;7.80;90.49
66703;BME280;60933;46.398;-63.798;2023-06-04T12:31:46;102040.16;;;7.98;90.34
66703;BME280;60933;46.398;-63.798;2023-06-04T12:34:15;102041.09;;;8.13;90.13
66703;BME280;60933;46.398;-63.798;2023-06-04T12:36:43;102043.69;;;8.16;89.13
66703;BME280;60933;46.398;-63.798;2023-06-04T12:39:09;102045.50;;;8.35;89.16
66703;BME280;60933;46.398;-63.798;2023-06-04T12:41:35;102026.66;;;8.36;88.83
66703;BME280;60933;46.398;-63.798;2023-06-04T12:44:01;102030.13;;;8.42;87.80
66703;BME280;60933;46.398;-63.798;2023-06-04T12:46:28;102024.97;;;8.42;87.02
66703;BME280;60933;46.398;-63.798;2023-06-04T12:48:54;102020.75;;;8.50;86.96